createdAt,value
2022-12-01T00:00:27.527Z,99.90
2022-12-01T00:01:31.898Z,99.90
2022-12-01T00:02:33.987Z,99.90
2022-12-01T00:03:37.460Z,99.90
2022-12-01T00:04:40.563Z,99.90
2022-12-01T00:05:43.613Z,99.90
2022-12-01T00:06:45.645Z,99.90
2022-12-01T00:07:49.526Z,99.90
2022-12-01T00:09:25.096Z,99.90
2022-12-01T00:10:28.333Z,99.90
2022-12-01T00:11:31.705Z,99.90
2022-12-01T00:12:33.807Z,99.90
2022-12-01T00:13:37.523Z,99.90
2022-12-01T00:14:39.565Z,99.90
2022-12-01T00:15:42.690Z,99.90
2022-12-01T00:16:46.202Z,99.90
2022-12-01T00:17:49.546Z,99.90
2022-12-01T00:18:52.303Z,99.90
2022-12-01T00:19:55.317Z,99.90
2022-12-01T00:20:57.341Z,99.90
2022-12-01T00:22:00.360Z,99.90
2022-12-01T00:23:02.452Z,99.90
2022-12-01T00:24:05.733Z,99.90
2022-12-01T00:25:08.066Z,99.90
2022-12-01T00:26:11.108Z,99.90
2022-12-01T00:27:13.120Z,99.90
2022-12-01T00:28:16.101Z,99.90
2022-12-01T00:29:18.191Z,99.90
2022-12-01T00:30:22.907Z,99.90
2022-12-01T00:31:25.868Z,99.90
2022-12-01T00:32:31.722Z,99.90
2022-12-01T00:33:33.783Z,99.90
2022-12-01T00:34:37.962Z,99.90
2022-12-01T00:35:40.061Z,99.90
2022-12-01T00:36:43.043Z,99.90
2022-12-01T00:37:45.249Z,99.90
2022-12-01T00:38:48.382Z,99.90
2022-12-01T00:39:50.612Z,99.90
2022-12-01T00:40:54.112Z,99.90
2022-12-01T00:41:57.167Z,99.90
2022-12-01T00:42:59.268Z,99.90
2022-12-01T00:44:02.379Z,99.90
2022-12-01T00:45:05.465Z,99.90
2022-12-01T00:46:08.554Z,99.90
2022-12-01T00:47:10.679Z,99.90
2022-12-01T00:48:15.078Z,99.90
2022-12-01T00:49:17.325Z,99.90
2022-12-01T00:50:20.335Z,99.90
2022-12-01T00:51:22.422Z,99.90
2022-12-01T00:52:25.448Z,99.90
2022-12-01T00:53:27.468Z,99.90
2022-12-01T00:54:32.067Z,99.90
2022-12-01T00:55:34.657Z,99.90
2022-12-01T00:56:37.684Z,99.90
2022-12-01T00:57:41.217Z,99.90
2022-12-01T00:58:43.377Z,99.90
2022-12-01T00:59:47.134Z,99.90
2022-12-01T01:00:50.356Z,99.90
2022-12-01T01:01:53.524Z,99.90
2022-12-01T01:02:55.717Z,99.90
2022-12-01T01:04:00.478Z,99.90
2022-12-01T01:05:02.480Z,99.90
2022-12-01T01:06:07.150Z,99.90
2022-12-01T01:07:09.166Z,99.90
2022-12-01T01:08:14.835Z,99.90
2022-12-01T01:09:17.691Z,99.90
2022-12-01T01:10:20.745Z,99.90
2022-12-01T01:11:22.780Z,99.90
2022-12-01T01:12:26.011Z,99.90
2022-12-01T01:13:28.662Z,99.90
2022-12-01T01:14:31.705Z,99.90
2022-12-01T01:15:34.147Z,99.90
2022-12-01T01:16:37.280Z,99.90
2022-12-01T01:17:39.371Z,99.90
2022-12-01T01:18:42.855Z,99.90
2022-12-01T01:19:46.551Z,99.90
2022-12-01T01:20:56.660Z,99.90
2022-12-01T01:21:59.653Z,99.90
2022-12-01T01:23:01.680Z,99.90
2022-12-01T01:24:05.163Z,99.90
2022-12-01T01:25:08.006Z,99.90
2022-12-01T01:26:13.656Z,99.90
2022-12-01T01:27:15.728Z,99.90
2022-12-01T01:28:19.743Z,99.90
2022-12-01T01:29:21.938Z,99.90
2022-12-01T01:30:25.047Z,99.90
2022-12-01T01:31:29.550Z,99.90
2022-12-01T01:32:32.584Z,99.90
2022-12-01T01:33:34.659Z,99.90
2022-12-01T01:34:37.671Z,99.90
2022-12-01T01:35:41.142Z,99.90
2022-12-01T01:36:44.174Z,99.90
2022-12-01T01:37:46.306Z,99.90
2022-12-01T01:38:51.481Z,99.90
2022-12-01T01:39:53.656Z,99.90
2022-12-01T01:40:57.418Z,99.90
2022-12-01T01:41:59.495Z,99.90
2022-12-01T01:43:02.539Z,99.90
2022-12-01T01:44:44.240Z,99.90
2022-12-01T01:45:46.357Z,99.90
2022-12-01T01:46:49.881Z,99.90
2022-12-01T01:47:53.857Z,99.90
2022-12-01T01:49:00.200Z,99.90
2022-12-01T01:50:06.446Z,99.90
2022-12-01T01:51:13.285Z,99.90
2022-12-01T01:52:15.759Z,99.90
2022-12-01T01:53:18.791Z,99.90
2022-12-01T01:54:25.421Z,99.90
2022-12-01T01:55:29.517Z,99.90
2022-12-01T01:56:32.149Z,99.90
2022-12-01T01:57:35.729Z,99.90
2022-12-01T01:58:39.193Z,99.90
2022-12-01T01:59:45.891Z,99.90
2022-12-01T02:00:48.317Z,99.90
2022-12-01T02:01:57.835Z,99.90
2022-12-01T02:03:00.292Z,99.90
2022-12-01T02:04:04.382Z,99.90
2022-12-01T02:05:11.033Z,99.90
2022-12-01T02:06:16.041Z,99.90
2022-12-01T02:07:19.888Z,99.90
2022-12-01T02:08:23.005Z,99.90
2022-12-01T02:09:25.419Z,99.90
2022-12-01T02:10:40.568Z,99.90
2022-12-01T02:11:59.489Z,99.90
2022-12-01T02:13:14.250Z,99.90
2022-12-01T02:14:42.416Z,99.90
2022-12-01T02:15:54.470Z,99.90
2022-12-01T02:17:04.311Z,99.90
2022-12-01T02:18:26.459Z,99.90
2022-12-01T02:19:45.802Z,99.90
2022-12-01T02:21:19.985Z,99.90
2022-12-01T02:22:30.265Z,99.90
2022-12-01T02:24:06.493Z,99.90
2022-12-01T02:25:20.344Z,99.90
2022-12-01T02:26:37.046Z,99.90
2022-12-01T02:27:55.403Z,99.90
2022-12-01T02:29:17.618Z,99.90
2022-12-01T02:30:33.426Z,99.90
2022-12-01T02:31:42.833Z,99.90
2022-12-01T02:33:04.684Z,99.90
2022-12-01T02:34:13.595Z,99.90
2022-12-01T02:35:23.537Z,99.90
2022-12-01T02:36:34.612Z,99.90
2022-12-01T02:37:44.812Z,99.90
2022-12-01T02:38:54.261Z,99.90
2022-12-01T02:40:04.571Z,99.90
2022-12-01T02:41:10.753Z,99.90
2022-12-01T02:42:39.908Z,99.90
2022-12-01T02:43:49.955Z,99.90
2022-12-01T02:44:53.021Z,99.90
2022-12-01T02:46:01.479Z,99.90
2022-12-01T02:47:10.317Z,99.90
2022-12-01T02:48:17.431Z,99.90
2022-12-01T02:49:23.999Z,99.90
2022-12-01T02:50:29.568Z,99.90
2022-12-01T02:51:34.042Z,99.90
2022-12-01T02:52:37.870Z,99.90
2022-12-01T02:53:39.976Z,99.90
2022-12-01T02:54:45.333Z,99.90
2022-12-01T02:55:49.239Z,99.90
2022-12-01T02:56:53.803Z,99.90
2022-12-01T02:57:55.812Z,99.90
2022-12-01T02:58:58.847Z,99.90
2022-12-01T03:00:01.896Z,99.90
2022-12-01T03:01:21.114Z,99.90
2022-12-01T03:02:42.174Z,99.90
2022-12-01T03:04:10.416Z,99.90
2022-12-01T03:05:18.789Z,99.90
2022-12-01T03:06:30.802Z,99.90
2022-12-01T03:07:45.998Z,99.90
2022-12-01T03:08:58.401Z,99.90
2022-12-01T03:10:12.103Z,99.90
2022-12-01T03:11:27.982Z,99.90
2022-12-01T03:12:36.919Z,99.90
2022-12-01T03:13:46.802Z,99.90
2022-12-01T03:14:58.366Z,99.90
2022-12-01T03:16:06.518Z,99.90
2022-12-01T03:17:17.969Z,99.90
2022-12-01T03:18:27.831Z,99.90
2022-12-01T03:19:35.169Z,99.90
2022-12-01T03:20:42.692Z,99.90
2022-12-01T03:21:51.095Z,99.90
2022-12-01T03:22:59.205Z,99.90
2022-12-01T03:24:05.294Z,99.90
2022-12-01T03:25:09.289Z,99.90
2022-12-01T03:26:17.862Z,99.90
2022-12-01T03:27:24.306Z,99.90
2022-12-01T03:28:32.148Z,99.90
2022-12-01T03:29:39.904Z,99.90
2022-12-01T03:30:44.560Z,99.90
2022-12-01T03:31:53.058Z,99.90
2022-12-01T03:33:04.393Z,99.90
2022-12-01T03:34:12.254Z,99.90
2022-12-01T03:35:20.641Z,99.90
2022-12-01T03:36:27.637Z,99.90
2022-12-01T03:37:35.861Z,99.90
2022-12-01T03:38:39.238Z,99.90
2022-12-01T03:39:43.933Z,99.90
2022-12-01T03:40:49.657Z,99.90
2022-12-01T03:41:57.557Z,99.90
2022-12-01T03:43:02.956Z,99.90
2022-12-01T03:44:12.379Z,99.90
2022-12-01T03:45:21.071Z,99.90
2022-12-01T03:46:29.374Z,99.90
2022-12-01T03:47:35.617Z,99.90
2022-12-01T03:48:39.811Z,99.90
2022-12-01T03:49:45.037Z,99.90
2022-12-01T03:50:56.557Z,99.90
2022-12-01T03:52:09.851Z,99.90
2022-12-01T03:53:19.306Z,99.90
2022-12-01T03:54:30.291Z,99.90
2022-12-01T03:55:37.966Z,99.90
2022-12-01T03:56:47.247Z,99.90
2022-12-01T03:57:56.092Z,99.90
2022-12-01T03:59:03.809Z,99.90
2022-12-01T04:00:07.965Z,99.90
2022-12-01T04:01:15.880Z,99.90
2022-12-01T04:02:18.289Z,99.90
2022-12-01T04:03:25.522Z,99.90
2022-12-01T04:04:29.142Z,99.90
2022-12-01T04:05:33.383Z,99.90
2022-12-01T04:06:35.733Z,99.90
2022-12-01T04:07:39.205Z,99.90
2022-12-01T04:08:41.887Z,99.90
2022-12-01T04:09:44.981Z,99.90
2022-12-01T04:10:47.125Z,99.90
2022-12-01T04:12:15.971Z,99.90
2022-12-01T04:13:23.403Z,99.90
2022-12-01T04:14:25.640Z,99.90
2022-12-01T04:15:29.291Z,99.90
2022-12-01T04:16:31.390Z,99.90
2022-12-01T04:17:34.912Z,99.90
2022-12-01T04:18:36.931Z,99.90
2022-12-01T04:19:41.288Z,99.90
2022-12-01T04:20:43.394Z,99.90
2022-12-01T04:21:46.447Z,99.90
2022-12-01T04:22:48.768Z,99.90
2022-12-01T04:24:03.991Z,99.90
2022-12-01T04:25:07.237Z,99.90
2022-12-01T04:26:15.592Z,99.90
2022-12-01T04:27:18.175Z,99.90
2022-12-01T04:28:21.162Z,99.90
2022-12-01T04:29:23.268Z,99.90
2022-12-01T04:30:26.263Z,99.90
2022-12-01T04:31:28.596Z,99.90
2022-12-01T04:32:31.695Z,99.90
2022-12-01T04:33:33.707Z,99.90
2022-12-01T04:34:36.706Z,99.90
2022-12-01T04:35:41.070Z,99.90
2022-12-01T04:36:43.082Z,99.90
2022-12-01T04:37:46.091Z,99.90
2022-12-01T04:38:48.288Z,99.90
2022-12-01T04:39:51.605Z,99.90
2022-12-01T04:40:53.887Z,99.90
2022-12-01T04:41:56.968Z,99.90
2022-12-01T04:42:58.968Z,99.90
2022-12-01T04:44:01.993Z,99.90
2022-12-01T04:45:04.488Z,99.90
2022-12-01T04:46:08.606Z,99.90
2022-12-01T04:47:10.736Z,99.90
2022-12-01T04:48:13.785Z,99.90
2022-12-01T04:49:15.800Z,99.90
2022-12-01T04:50:18.839Z,99.90
2022-12-01T04:51:22.576Z,99.90
2022-12-01T04:52:27.452Z,99.90
2022-12-01T04:53:32.885Z,99.90
2022-12-01T04:54:35.951Z,99.90
2022-12-01T04:55:38.925Z,99.90
2022-12-01T04:56:42.140Z,99.90
2022-12-01T04:57:44.180Z,99.90
2022-12-01T04:58:48.191Z,99.90
2022-12-01T04:59:50.370Z,99.90
2022-12-01T05:00:53.607Z,99.90
2022-12-01T05:01:55.714Z,99.90
2022-12-01T05:02:59.642Z,99.90
2022-12-01T05:04:02.148Z,99.90
2022-12-01T05:05:06.829Z,99.90
2022-12-01T05:06:11.075Z,99.90
2022-12-01T05:07:15.451Z,99.90
2022-12-01T05:08:17.490Z,99.90
2022-12-01T05:09:21.266Z,99.90
2022-12-01T05:10:23.324Z,99.90
2022-12-01T05:11:28.502Z,99.90
2022-12-01T05:12:30.631Z,99.90
2022-12-01T05:13:33.662Z,99.90
2022-12-01T05:14:35.765Z,99.90
2022-12-01T05:15:38.793Z,99.90
2022-12-01T05:16:41.895Z,99.90
2022-12-01T05:17:44.118Z,99.90
2022-12-01T05:18:50.319Z,99.90
2022-12-01T05:20:10.772Z,99.90
2022-12-01T05:21:12.772Z,99.90
2022-12-01T05:22:16.211Z,99.90
2022-12-01T05:23:19.288Z,99.90
2022-12-01T05:24:22.064Z,99.90
2022-12-01T05:25:25.072Z,99.90
2022-12-01T05:26:28.114Z,99.90
2022-12-01T05:27:30.156Z,99.90
2022-12-01T05:28:33.599Z,99.90
2022-12-01T05:29:36.641Z,99.90
2022-12-01T05:30:38.772Z,99.90
2022-12-01T05:31:42.138Z,99.90
2022-12-01T05:32:44.211Z,99.90
2022-12-01T05:33:47.250Z,99.90
2022-12-01T05:34:49.293Z,99.90
2022-12-01T05:35:53.241Z,99.90
2022-12-01T05:36:55.284Z,99.90
2022-12-01T05:38:04.597Z,99.90
2022-12-01T05:39:10.462Z,99.90
2022-12-01T05:40:13.123Z,99.90
2022-12-01T05:41:16.177Z,99.90
2022-12-01T05:42:18.184Z,99.90
2022-12-01T05:43:28.309Z,99.90
2022-12-01T05:44:30.960Z,99.90
2022-12-01T05:45:34.390Z,99.90
2022-12-01T05:46:37.497Z,99.90
2022-12-01T05:47:39.539Z,99.90
2022-12-01T05:48:43.396Z,99.90
2022-12-01T05:49:45.495Z,99.90
2022-12-01T05:50:48.520Z,99.90
2022-12-01T05:51:50.539Z,99.90
2022-12-01T05:52:54.044Z,99.90
2022-12-01T05:53:59.073Z,99.90
2022-12-01T05:55:02.438Z,99.90
2022-12-01T05:56:05.056Z,99.90
2022-12-01T05:57:08.099Z,99.90
2022-12-01T05:58:10.730Z,99.90
2022-12-01T05:59:13.785Z,99.90
2022-12-01T06:00:16.973Z,99.90
2022-12-01T06:01:20.120Z,99.90
2022-12-01T06:02:22.366Z,99.90
2022-12-01T06:03:25.420Z,99.90
2022-12-01T06:04:27.519Z,99.90
2022-12-01T06:05:30.676Z,99.90
2022-12-01T06:06:32.842Z,99.90
2022-12-01T06:07:36.386Z,99.90
2022-12-01T06:08:38.613Z,99.90
2022-12-01T06:09:42.982Z,99.90
2022-12-01T06:10:46.073Z,99.90
2022-12-01T06:11:52.496Z,99.90
2022-12-01T06:12:55.741Z,99.90
2022-12-01T06:13:57.742Z,99.90
2022-12-01T06:15:00.735Z,99.90
2022-12-01T06:16:04.692Z,99.90
2022-12-01T06:17:07.789Z,99.90
2022-12-01T06:18:09.930Z,99.90
2022-12-01T06:19:12.926Z,99.90
2022-12-01T06:20:15.068Z,99.90
2022-12-01T06:21:18.194Z,99.90
2022-12-01T06:22:20.242Z,99.90
2022-12-01T06:23:27.565Z,99.90
2022-12-01T06:24:32.211Z,99.90
2022-12-01T06:25:36.612Z,99.90
2022-12-01T06:26:38.638Z,99.90
2022-12-01T06:27:41.687Z,99.90
2022-12-01T06:28:43.811Z,99.90
2022-12-01T06:29:46.855Z,99.90
2022-12-01T06:30:48.879Z,99.90
2022-12-01T06:31:51.932Z,99.90
2022-12-01T06:32:54.046Z,99.90
2022-12-01T06:33:57.042Z,99.90
2022-12-01T06:34:59.051Z,99.90
2022-12-01T06:36:03.668Z,99.90
2022-12-01T06:37:05.757Z,99.90
2022-12-01T06:38:08.757Z,99.90
2022-12-01T06:39:10.852Z,99.90
2022-12-01T06:40:14.334Z,99.90
2022-12-01T06:41:18.701Z,99.90
2022-12-01T06:42:21.009Z,99.90
2022-12-01T06:43:24.182Z,99.90
2022-12-01T06:44:26.291Z,99.90
2022-12-01T06:45:30.008Z,99.90
2022-12-01T06:46:33.158Z,99.90
2022-12-01T06:47:35.341Z,99.90
2022-12-01T06:48:38.373Z,99.90
2022-12-01T06:49:40.506Z,99.90
2022-12-01T06:50:43.598Z,99.90
2022-12-01T06:51:46.441Z,99.90
2022-12-01T06:52:49.614Z,99.90
2022-12-01T06:53:53.970Z,99.90
2022-12-01T06:54:57.073Z,99.90
2022-12-01T06:56:02.609Z,99.90
2022-12-01T06:57:07.240Z,99.90
2022-12-01T06:58:10.631Z,99.90
2022-12-01T06:59:13.067Z,99.90
2022-12-01T07:00:17.347Z,99.90
2022-12-01T07:01:19.961Z,99.90
2022-12-01T07:02:23.081Z,99.90
2022-12-01T07:03:25.152Z,99.90
2022-12-01T07:04:28.289Z,99.90
2022-12-01T07:05:30.277Z,99.90
2022-12-01T07:06:33.798Z,99.90
2022-12-01T07:07:37.276Z,99.90
2022-12-01T07:08:40.363Z,99.90
2022-12-01T07:09:43.409Z,99.90
2022-12-01T07:10:45.417Z,99.90
2022-12-01T07:11:48.443Z,99.90
2022-12-01T07:12:51.816Z,99.90
2022-12-01T07:13:56.782Z,99.90
2022-12-01T07:14:58.801Z,99.90
2022-12-01T07:16:03.013Z,99.90
2022-12-01T07:17:06.408Z,99.90
2022-12-01T07:18:08.513Z,99.90
2022-12-01T07:19:11.725Z,99.90
2022-12-01T07:20:14.114Z,99.90
2022-12-01T07:21:17.197Z,99.90
2022-12-01T07:22:20.626Z,99.90
2022-12-01T07:23:23.666Z,99.90
2022-12-01T07:24:25.791Z,99.90
2022-12-01T07:25:28.812Z,99.90
2022-12-01T07:26:30.856Z,99.90
2022-12-01T07:27:33.902Z,99.90
2022-12-01T07:28:37.340Z,99.90
2022-12-01T07:29:40.493Z,99.90
2022-12-01T07:30:42.550Z,99.90
2022-12-01T07:31:45.635Z,99.90
2022-12-01T07:32:48.672Z,99.90
2022-12-01T07:33:51.495Z,99.90
2022-12-01T07:34:54.556Z,99.90
2022-12-01T07:35:56.683Z,99.90
2022-12-01T07:36:59.696Z,99.90
2022-12-01T07:38:01.707Z,99.90
2022-12-01T07:39:07.524Z,99.90
2022-12-01T07:40:11.762Z,99.90
2022-12-01T07:41:16.003Z,99.90
2022-12-01T07:42:19.008Z,99.90
2022-12-01T07:43:21.139Z,99.90
2022-12-01T07:44:25.504Z,99.90
2022-12-01T07:45:27.651Z,99.90
2022-12-01T07:46:30.786Z,99.90
2022-12-01T07:47:33.849Z,99.90
2022-12-01T07:48:37.132Z,99.90
2022-12-01T07:49:40.204Z,99.90
2022-12-01T07:50:42.222Z,99.90
2022-12-01T07:51:45.235Z,99.90
2022-12-01T07:52:50.016Z,99.90
2022-12-01T07:53:54.579Z,99.90
2022-12-01T07:54:57.576Z,99.90
2022-12-01T07:56:05.520Z,99.90
2022-12-01T07:57:14.376Z,99.90
2022-12-01T07:58:16.552Z,99.90
2022-12-01T07:59:19.790Z,99.90
2022-12-01T08:00:23.495Z,99.90
2022-12-01T08:01:27.126Z,99.90
2022-12-01T08:02:29.259Z,99.90
2022-12-01T08:03:32.267Z,99.90
2022-12-01T08:04:35.318Z,99.90
2022-12-01T08:05:37.441Z,99.90
2022-12-01T08:06:40.490Z,99.90
2022-12-01T08:07:42.546Z,99.90
2022-12-01T08:08:45.710Z,99.90
2022-12-01T08:09:49.061Z,99.90
2022-12-01T08:10:51.516Z,99.90
2022-12-01T08:11:54.554Z,99.90
2022-12-01T08:12:56.594Z,99.90
2022-12-01T08:13:59.828Z,99.90
2022-12-01T08:15:01.916Z,99.90
2022-12-01T08:16:07.794Z,99.90
2022-12-01T08:17:10.893Z,99.90
2022-12-01T08:18:13.587Z,99.90
2022-12-01T08:19:16.598Z,99.90
2022-12-01T08:20:23.704Z,99.90
2022-12-01T08:21:27.143Z,99.90
2022-12-01T08:22:30.404Z,99.90
2022-12-01T08:23:33.651Z,99.90
2022-12-01T08:24:36.679Z,99.90
2022-12-01T08:25:38.673Z,99.90
2022-12-01T08:26:41.699Z,99.90
2022-12-01T08:27:43.693Z,99.90
2022-12-01T08:28:47.704Z,99.90
2022-12-01T08:29:50.823Z,99.90
2022-12-01T08:30:53.215Z,99.90
2022-12-01T08:31:58.520Z,99.90
2022-12-01T08:33:00.546Z,99.90
2022-12-01T08:34:06.477Z,99.90
2022-12-01T08:35:09.257Z,99.90
2022-12-01T08:36:12.364Z,99.90
2022-12-01T08:37:14.772Z,99.90
2022-12-01T08:38:17.754Z,99.90
2022-12-01T08:39:20.949Z,99.90
2022-12-01T08:40:23.028Z,99.90
2022-12-01T08:41:26.490Z,99.90
2022-12-01T08:42:28.549Z,99.90
2022-12-01T08:43:56.706Z,99.90
2022-12-01T08:44:54.704Z,99.90
2022-12-01T08:45:59.687Z,99.90
2022-12-01T08:47:04.323Z,99.30
2022-12-01T08:48:06.568Z,95.80
2022-12-01T08:49:09.630Z,95.50
2022-12-01T08:50:12.207Z,97.80
2022-12-01T08:51:17.258Z,99.90
2022-12-01T08:52:20.313Z,99.90
2022-12-01T08:53:22.429Z,99.90
2022-12-01T08:54:25.638Z,99.90
2022-12-01T08:55:27.684Z,99.90
2022-12-01T08:56:32.699Z,99.90
2022-12-01T08:57:35.736Z,99.90
2022-12-01T08:58:37.932Z,99.90
2022-12-01T08:59:40.980Z,99.90
2022-12-01T09:00:43.068Z,99.90
2022-12-01T09:01:57.208Z,99.90
2022-12-01T09:03:01.109Z,99.90
2022-12-01T09:04:08.493Z,99.90
2022-12-01T09:05:11.882Z,99.90
2022-12-01T09:06:15.947Z,99.90
2022-12-01T09:07:26.046Z,99.90
2022-12-01T09:08:31.714Z,99.90
2022-12-01T09:09:36.518Z,99.90
2022-12-01T09:10:38.550Z,99.90
2022-12-01T09:11:43.666Z,99.90
2022-12-01T09:12:45.754Z,99.90
2022-12-01T09:13:54.463Z,99.90
2022-12-01T09:14:57.811Z,99.90
2022-12-01T09:16:02.717Z,99.50
2022-12-01T09:17:06.628Z,98.60
2022-12-01T09:18:11.001Z,98.30
2022-12-01T09:19:17.918Z,99.50
2022-12-01T09:20:24.245Z,99.90
2022-12-01T09:21:31.463Z,95.60
2022-12-01T09:22:35.234Z,92.70
2022-12-01T09:23:37.541Z,92.60
2022-12-01T09:24:40.646Z,86.30
2022-12-01T09:25:42.841Z,84.70
2022-12-01T09:26:45.956Z,83.20
2022-12-01T09:27:48.094Z,83.00
2022-12-01T09:28:53.750Z,81.90
2022-12-01T09:29:55.859Z,81.80
2022-12-01T09:31:05.357Z,81.60
2022-12-01T09:32:08.380Z,82.40
2022-12-01T09:33:12.525Z,81.50
2022-12-01T09:34:17.722Z,82.10
2022-12-01T09:35:23.421Z,82.10
2022-12-01T09:36:27.250Z,83.40
2022-12-01T09:37:30.248Z,82.80
2022-12-01T09:38:33.433Z,82.50
2022-12-01T09:39:36.431Z,83.40
2022-12-01T09:40:40.830Z,84.40
2022-12-01T09:41:47.947Z,83.80
2022-12-01T09:42:50.423Z,83.50
2022-12-01T09:44:00.276Z,84.10
2022-12-01T09:45:04.914Z,84.80
2022-12-01T09:46:14.320Z,84.90
2022-12-01T09:47:21.278Z,85.70
2022-12-01T09:48:32.368Z,85.30
2022-12-01T09:49:45.473Z,86.30
2022-12-01T09:50:48.542Z,86.80
2022-12-01T09:51:53.651Z,86.70
2022-12-01T09:53:00.428Z,86.90
2022-12-01T09:54:04.416Z,87.20
2022-12-01T09:55:13.582Z,86.90
2022-12-01T09:56:20.541Z,86.90
2022-12-01T09:57:31.278Z,86.90
2022-12-01T09:58:34.700Z,87.60
2022-12-01T09:59:43.142Z,88.00
2022-12-01T10:00:49.070Z,88.70
2022-12-01T10:01:59.457Z,88.20
2022-12-01T10:03:13.909Z,88.50
2022-12-01T10:04:26.541Z,88.20
2022-12-01T10:05:46.819Z,88.90
2022-12-01T10:07:03.963Z,89.30
2022-12-01T10:08:13.145Z,89.60
2022-12-01T10:09:23.181Z,89.50
2022-12-01T10:10:29.832Z,89.10
2022-12-01T10:11:35.444Z,89.80
2022-12-01T10:12:38.613Z,89.50
2022-12-01T10:13:43.704Z,87.90
2022-12-01T10:14:48.827Z,88.70
2022-12-01T10:15:58.260Z,88.60
2022-12-01T10:17:09.042Z,87.90
2022-12-01T10:18:30.690Z,88.30
2022-12-01T10:19:43.668Z,88.70
2022-12-01T10:20:53.712Z,88.90
2022-12-01T10:22:16.118Z,89.40
2022-12-01T10:23:42.052Z,88.80
2022-12-01T10:24:55.461Z,88.50
2022-12-01T10:26:00.101Z,89.00
2022-12-01T10:27:14.003Z,89.40
2022-12-01T10:29:03.123Z,90.00
2022-12-01T10:30:10.239Z,88.80
2022-12-01T10:31:20.724Z,89.90
2022-12-01T10:32:32.649Z,89.60
2022-12-01T10:33:42.365Z,90.10
2022-12-01T10:34:47.863Z,90.50
2022-12-01T10:35:51.221Z,90.60
2022-12-01T10:36:54.471Z,90.50
2022-12-01T10:38:00.220Z,90.80
2022-12-01T10:39:05.009Z,91.20
2022-12-01T10:40:14.242Z,91.10
2022-12-01T10:41:19.465Z,90.90
2022-12-01T10:42:29.997Z,91.20
2022-12-01T10:43:37.112Z,91.30
2022-12-01T10:44:40.983Z,91.30
2022-12-01T10:45:45.798Z,91.40
2022-12-01T10:46:52.819Z,91.50
2022-12-01T10:48:16.906Z,91.70
2022-12-01T10:49:21.067Z,91.80
2022-12-01T10:50:27.985Z,91.50
2022-12-01T10:51:31.147Z,91.30
2022-12-01T10:52:37.617Z,90.80
2022-12-01T10:53:39.747Z,91.10
2022-12-01T10:54:42.911Z,91.20
2022-12-01T10:55:48.073Z,91.50
2022-12-01T10:56:56.797Z,91.10
2022-12-01T10:58:09.086Z,91.00
2022-12-01T10:59:32.886Z,90.60
2022-12-01T11:02:03.697Z,90.80
2022-12-01T11:03:06.514Z,90.70
2022-12-01T11:04:25.773Z,90.70
2022-12-01T11:05:33.789Z,90.20
2022-12-01T11:06:38.514Z,90.90
2022-12-01T11:07:45.134Z,90.90
2022-12-01T11:08:52.483Z,90.40
2022-12-01T11:10:05.126Z,90.80
2022-12-01T11:11:22.427Z,91.20
2022-12-01T11:12:26.170Z,91.00
2022-12-01T11:13:31.172Z,91.20
2022-12-01T11:14:44.211Z,91.80
2022-12-01T11:15:53.739Z,92.20
2022-12-01T11:16:56.848Z,92.60
2022-12-01T11:18:02.229Z,93.70
2022-12-01T11:19:25.367Z,94.70
2022-12-01T11:20:36.746Z,95.60
2022-12-01T11:21:47.698Z,96.70
2022-12-01T11:22:50.740Z,98.00
2022-12-01T11:23:54.634Z,98.20
2022-12-01T11:25:01.306Z,98.60
2022-12-01T11:26:12.515Z,99.70
2022-12-01T11:27:18.438Z,99.90
2022-12-01T11:28:21.633Z,99.90
2022-12-01T11:29:32.221Z,99.90
2022-12-01T11:30:35.376Z,99.90
2022-12-01T11:31:40.579Z,99.90
2022-12-01T11:32:53.682Z,99.90
2022-12-01T11:33:57.776Z,99.90
2022-12-01T11:35:04.184Z,99.90
2022-12-01T11:36:14.626Z,99.90
2022-12-01T11:37:21.858Z,99.90
2022-12-01T11:38:31.764Z,99.90
2022-12-01T11:39:37.535Z,99.90
2022-12-01T11:40:49.643Z,99.90
2022-12-01T11:41:57.247Z,99.90
2022-12-01T11:43:02.590Z,99.90
2022-12-01T11:44:43.252Z,99.90
2022-12-01T11:45:40.502Z,99.90
2022-12-01T11:46:50.357Z,99.90
2022-12-01T11:48:01.688Z,99.90
2022-12-01T11:49:05.362Z,99.90
2022-12-01T11:50:26.401Z,99.90
2022-12-01T11:51:37.304Z,99.90
2022-12-01T11:52:47.912Z,99.90
2022-12-01T11:54:05.389Z,99.90
2022-12-01T11:55:22.844Z,99.90
2022-12-01T11:56:28.675Z,99.90
2022-12-01T11:57:34.633Z,99.90
2022-12-01T11:58:37.330Z,99.90
2022-12-01T11:59:40.457Z,99.90
2022-12-01T12:00:48.858Z,99.90
2022-12-01T12:02:07.933Z,99.90
2022-12-01T12:03:22.023Z,99.90
2022-12-01T12:04:34.734Z,99.90
2022-12-01T12:05:52.790Z,99.90
2022-12-01T12:07:06.557Z,99.90
2022-12-01T12:08:18.323Z,99.90
2022-12-01T12:09:44.720Z,99.90
2022-12-01T12:11:02.152Z,99.90
2022-12-01T12:12:14.163Z,99.90
2022-12-01T12:13:55.162Z,99.90
2022-12-01T12:15:11.500Z,99.90
2022-12-01T12:16:19.579Z,98.50
2022-12-01T12:17:34.069Z,99.00
2022-12-01T12:18:50.131Z,96.70
2022-12-01T12:20:19.379Z,97.50
2022-12-01T12:21:31.730Z,97.40
2022-12-01T12:22:45.836Z,97.00
2022-12-01T12:24:11.812Z,96.90
2022-12-01T12:25:26.534Z,97.20
2022-12-01T12:26:33.731Z,94.70
2022-12-01T12:27:48.791Z,95.10
2022-12-01T12:29:16.437Z,94.30
2022-12-01T12:30:22.072Z,93.60
2022-12-01T12:31:33.571Z,94.00
2022-12-01T12:32:49.107Z,93.80
2022-12-01T12:34:11.891Z,94.10
2022-12-01T12:35:30.567Z,93.80
2022-12-01T12:36:43.576Z,93.00
2022-12-01T12:37:57.966Z,92.40
2022-12-01T12:39:17.042Z,92.00
2022-12-01T12:40:34.830Z,91.90
2022-12-01T12:41:43.485Z,92.40
2022-12-01T12:42:54.862Z,92.80
2022-12-01T12:44:08.619Z,92.80
2022-12-01T12:45:23.942Z,92.60
2022-12-01T12:46:39.455Z,92.60
2022-12-01T12:47:55.551Z,91.90
2022-12-01T12:49:21.313Z,91.60
2022-12-01T12:50:28.903Z,91.70
2022-12-01T12:51:35.480Z,91.60
2022-12-01T12:52:42.398Z,92.00
2022-12-01T12:53:54.011Z,92.00
2022-12-01T12:55:01.610Z,91.90
2022-12-01T12:56:11.384Z,92.00
2022-12-01T12:57:20.976Z,92.30
2022-12-01T12:58:26.310Z,93.30
2022-12-01T12:59:34.563Z,94.20
2022-12-01T13:00:41.119Z,95.50
2022-12-01T13:01:49.323Z,96.00
2022-12-01T13:02:57.216Z,96.50
2022-12-01T13:04:05.461Z,97.20
2022-12-01T13:05:17.522Z,97.40
2022-12-01T13:06:26.786Z,98.10
2022-12-01T13:07:37.095Z,99.10
2022-12-01T13:08:47.980Z,99.70
2022-12-01T13:09:58.284Z,99.40
2022-12-01T13:11:08.972Z,99.90
2022-12-01T13:12:16.470Z,98.60
2022-12-01T13:13:26.778Z,99.00
2022-12-01T13:14:36.360Z,99.40
2022-12-01T13:15:40.827Z,98.90
2022-12-01T13:16:46.993Z,99.50
2022-12-01T13:17:53.478Z,98.30
2022-12-01T13:19:05.804Z,98.00
2022-12-01T13:20:15.251Z,98.40
2022-12-01T13:21:21.630Z,97.80
2022-12-01T13:22:31.614Z,97.40
2022-12-01T13:23:37.354Z,97.80
2022-12-01T13:24:39.481Z,97.20
2022-12-01T13:25:45.378Z,97.20
2022-12-01T13:26:52.969Z,97.10
2022-12-01T13:27:57.723Z,96.20
2022-12-01T13:29:00.063Z,95.80
2022-12-01T13:30:03.247Z,96.00
2022-12-01T13:31:08.842Z,96.00
2022-12-01T13:32:28.336Z,96.30
2022-12-01T13:33:32.551Z,96.20
2022-12-01T13:34:40.689Z,96.30
2022-12-01T13:35:44.663Z,95.90
2022-12-01T13:36:50.214Z,96.10
2022-12-01T13:37:54.141Z,96.40
2022-12-01T13:38:59.613Z,96.60
2022-12-01T13:40:13.288Z,98.10
2022-12-01T13:41:27.179Z,97.40
2022-12-01T13:42:34.138Z,97.70
2022-12-01T13:43:37.523Z,97.80
2022-12-01T13:44:43.073Z,98.20
2022-12-01T13:45:46.050Z,98.50
2022-12-01T13:46:57.521Z,98.90
2022-12-01T13:48:01.958Z,98.80
2022-12-01T13:49:05.694Z,98.70
2022-12-01T13:50:46.802Z,99.40
2022-12-01T13:52:32.482Z,99.90
2022-12-01T13:53:36.875Z,99.70
2022-12-01T13:54:38.999Z,99.90
2022-12-01T13:55:58.522Z,99.70
2022-12-01T13:57:05.035Z,99.90
2022-12-01T13:58:43.471Z,99.90
2022-12-01T14:00:23.874Z,99.90
2022-12-01T14:02:08.240Z,99.90
2022-12-01T14:03:33.337Z,99.90
2022-12-01T14:04:37.153Z,99.90
2022-12-01T14:05:54.996Z,99.90
2022-12-01T14:07:20.366Z,99.90
2022-12-01T14:08:25.152Z,99.90
2022-12-01T14:09:31.708Z,99.90
2022-12-01T14:10:34.846Z,99.90
2022-12-01T14:11:37.901Z,99.90
2022-12-01T14:12:45.765Z,99.90
2022-12-01T14:13:54.270Z,99.90
2022-12-01T14:15:00.542Z,99.90
2022-12-01T14:16:05.448Z,99.90
2022-12-01T14:17:22.415Z,99.90
2022-12-01T14:18:35.115Z,99.90
2022-12-01T14:19:44.748Z,99.90
2022-12-01T14:20:48.696Z,99.90